Time;durP1;ratioP1;P1;durP2;ratioP2;P2;SDS_P1;SDS_P2;PMS_P1;PMS_P2;Temp;Humidity;BMP_temperature;BMP_pressure;BME280_temperature;BME280_humidity;BME280_pressure;Samples;Min_cycle;Max_cycle;Signal;HPM_P1;HPM_P2
2023/08/27 00:00:43;;;;;;;2.50;1.53;;;;;;;17.90;100.00;100935.38;5232468;28;20034;-72
2023/08/27 00:03:14;;;;;;;4.80;1.80;;;;;;;17.72;100.00;100921.97;5210495;28;20033;-72
2023/08/27 00:05:45;;;;;;;7.97;1.83;;;;;;;17.51;100.00;100920.25;5230384;28;20078;-72
2023/08/27 00:08:17;;;;;;;6.23;2.30;;;;;;;17.70;100.00;100915.16;5231205;28;20029;-73
2023/08/27 00:10:48;;;;;;;7.33;2.50;;;;;;;17.76;100.00;100907.47;5228692;28;20049;-72
2023/08/27 00:13:19;;;;;;;7.73;2.93;;;;;;;17.65;100.00;100897.00;5228531;28;20040;-72
2023/08/27 00:15:51;;;;;;;3.37;1.77;;;;;;;17.12;100.00;100867.22;5224770;28;20465;-73
2023/08/27 00:18:22;;;;;;;3.43;1.73;;;;;;;17.09;100.00;100884.16;5232494;28;20041;-73
2023/08/27 00:20:54;;;;;;;4.37;1.70;;;;;;;17.21;100.00;100871.69;5232207;28;20037;-71
2023/08/27 00:23:25;;;;;;;2.27;1.50;;;;;;;17.45;100.00;100859.06;5226023;28;20036;-71
2023/08/27 00:25:57;;;;;;;5.80;1.67;;;;;;;17.40;100.00;100859.50;5199752;28;20741;-74
2023/08/27 00:28:28;;;;;;;3.63;1.93;;;;;;;17.45;100.00;100851.13;5213631;28;20436;-76
2023/08/27 00:31:04;;;;;;;2.90;1.70;;;;;;;17.42;100.00;100837.19;5212771;28;20030;-73
2023/08/27 00:33:36;;;;;;;4.57;1.57;;;;;;;17.43;100.00;100843.34;5231439;28;20056;-73
2023/08/27 00:36:07;;;;;;;3.27;1.60;;;;;;;17.13;100.00;100823.91;5226957;28;20037;-73
2023/08/27 00:38:39;;;;;;;3.30;1.60;;;;;;;17.03;100.00;100822.06;5225189;28;20103;-72
2023/08/27 00:41:10;;;;;;;3.77;1.40;;;;;;;17.31;100.00;100823.25;5218337;28;20033;-73
2023/08/27 00:43:42;;;;;;;3.33;1.30;;;;;;;17.06;100.00;100802.41;5213813;28;20022;-74
2023/08/27 00:46:13;;;;;;;4.00;1.47;;;;;;;16.90;100.00;100827.56;5225879;28;20037;-74
2023/08/27 00:48:45;;;;;;;3.33;1.53;;;;;;;17.20;100.00;100824.19;5227598;28;20018;-74
2023/08/27 00:51:16;;;;;;;2.63;1.30;;;;;;;17.26;100.00;100815.72;5218299;28;20373;-73
2023/08/27 00:53:48;;;;;;;2.47;1.50;;;;;;;17.23;100.00;100816.81;5231811;28;20064;-74
2023/08/27 00:56:20;;;;;;;2.10;1.17;;;;;;;17.28;100.00;100816.41;5232168;28;20100;-73
2023/08/27 00:58:51;;;;;;;5.27;1.67;;;;;;;17.33;100.00;100811.53;5231685;28;20440;-73
2023/08/27 01:01:23;;;;;;;3.03;1.30;;;;;;;17.07;100.00;100822.59;5230611;28;20034;-72
2023/08/27 01:03:54;;;;;;;2.30;1.23;;;;;;;17.13;100.00;100822.09;5232708;28;20021;-73
2023/08/27 01:06:26;;;;;;;2.63;1.30;;;;;;;16.77;100.00;100805.81;5232463;28;20025;-73
2023/08/27 01:09:27;;;;;;;3.13;1.33;;;;;;;17.10;100.00;100821.53;5232629;28;20029;-72
2023/08/27 01:12:17;;;;;;;2.60;1.30;;;;;;;17.05;100.00;100813.97;5232345;28;20041;-73
2023/08/27 01:14:51;;;;;;;3.67;1.60;;;;;;;16.72;100.00;100818.59;5224271;28;20029;-73
2023/08/27 01:17:23;;;;;;;2.40;1.30;;;;;;;16.67;100.00;100806.63;5232084;28;20021;-73
2023/08/27 01:19:55;;;;;;;3.27;1.30;;;;;;;16.73;100.00;100809.69;5206148;28;20029;-73
2023/08/27 01:22:28;;;;;;;3.87;1.53;;;;;;;16.91;100.00;100812.56;5231881;28;20030;-73
2023/08/27 01:24:59;;;;;;;3.53;1.40;;;;;;;16.53;100.00;100809.63;5232569;28;20028;-73
2023/08/27 01:27:37;;;;;;;2.77;1.10;;;;;;;16.58;100.00;100799.50;5230766;28;20491;-73
2023/08/27 01:30:23;;;;;;;3.53;1.50;;;;;;;16.84;100.00;100804.31;5231269;28;20057;-72
2023/08/27 01:33:04;;;;;;;2.00;1.20;;;;;;;16.82;100.00;100800.97;5219276;28;20412;-73
2023/08/27 01:35:36;;;;;;;2.90;1.33;;;;;;;16.72;100.00;100797.44;5214263;28;20144;-73
2023/08/27 01:38:08;;;;;;;2.20;1.20;;;;;;;16.34;100.00;100795.31;5231819;28;20033;-73
2023/08/27 01:40:40;;;;;;;4.07;1.47;;;;;;;16.22;100.00;100797.22;5232989;28;20109;-73
2023/08/27 01:43:11;;;;;;;2.70;1.40;;;;;;;16.64;100.00;100801.59;5238962;28;20032;-73
2023/08/27 01:45:43;;;;;;;2.33;1.33;;;;;;;16.48;100.00;100794.16;5219328;28;20021;-73
2023/08/27 01:48:14;;;;;;;4.00;1.60;;;;;;;16.60;100.00;100799.34;5211807;28;20026;-73
2023/08/27 01:50:46;;;;;;;2.80;1.30;;;;;;;16.66;100.00;100804.09;5225255;28;20065;-73
2023/08/27 01:53:18;;;;;;;2.07;1.47;;;;;;;16.52;100.00;100797.38;5232299;28;20022;-72
2023/08/27 01:55:49;;;;;;;2.17;1.03;;;;;;;16.32;100.00;100784.03;5232169;28;20130;-75
2023/08/27 01:58:21;;;;;;;3.47;1.50;;;;;;;16.65;100.00;100795.31;5231674;28;20021;-73
2023/08/27 02:00:52;;;;;;;2.30;1.50;;;;;;;16.33;100.00;100788.38;5231166;28;20022;-73
2023/08/27 02:03:23;;;;;;;1.90;1.20;;;;;;;16.37;100.00;100789.78;5231377;28;20133;-71
2023/08/27 02:05:55;;;;;;;3.63;1.57;;;;;;;16.64;100.00;100791.03;5214162;28;20068;-73
2023/08/27 02:08:26;;;;;;;2.77;1.80;;;;;;;16.56;100.00;100794.31;5231690;28;20020;-73
2023/08/27 02:10:57;;;;;;;2.20;1.43;;;;;;;16.63;100.00;100784.06;5239822;28;20447;-72
2023/08/27 02:13:28;;;;;;;3.17;1.67;;;;;;;16.43;100.00;100797.19;5230514;28;20041;-73
2023/08/27 02:16:00;;;;;;;2.30;1.20;;;;;;;16.66;100.00;100799.66;5231125;28;20065;-73
2023/08/27 02:18:31;;;;;;;2.33;1.43;;;;;;;16.71;100.00;100798.41;5220475;28;20021;-72
2023/08/27 02:21:02;;;;;;;2.00;1.30;;;;;;;16.72;100.00;100792.97;5221424;28;20111;-72
2023/08/27 02:23:34;;;;;;;5.53;2.03;;;;;;;16.71;100.00;100803.69;5228528;28;20021;-72
2023/08/27 02:26:05;;;;;;;3.70;1.33;;;;;;;16.61;100.00;100801.03;5245311;28;20128;-71
2023/08/27 02:28:36;;;;;;;3.03;1.80;;;;;;;16.71;100.00;100798.41;5235213;28;20029;-72
2023/08/27 02:31:08;;;;;;;5.10;1.90;;;;;;;16.59;100.00;100789.75;5234067;28;20016;-71
2023/08/27 02:33:40;;;;;;;2.47;1.67;;;;;;;16.47;100.00;100804.84;5201915;28;20051;-72
2023/08/27 02:36:11;;;;;;;4.10;2.07;;;;;;;16.33;100.00;100802.44;5235120;28;20518;-72
2023/08/27 02:38:42;;;;;;;3.57;2.23;;;;;;;16.16;100.00;100805.69;5235615;28;20480;-71
2023/08/27 02:41:14;;;;;;;4.07;1.77;;;;;;;16.31;100.00;100803.53;5226917;28;20104;-73
2023/08/27 02:43:45;;;;;;;4.63;1.90;;;;;;;16.26;100.00;100800.44;5243319;28;20447;-72
2023/08/27 02:46:16;;;;;;;5.77;2.57;;;;;;;16.28;100.00;100794.06;5234163;28;20029;-72
2023/08/27 02:48:47;;;;;;;4.03;2.00;;;;;;;16.35;100.00;100810.25;5235518;28;20466;-72
2023/08/27 02:51:19;;;;;;;3.90;2.37;;;;;;;16.17;100.00;100799.41;5230550;28;20032;-72
2023/08/27 02:53:51;;;;;;;3.53;1.93;;;;;;;16.43;100.00;100802.47;5235010;28;20056;-71
2023/08/27 02:56:22;;;;;;;5.00;2.13;;;;;;;16.03;100.00;100798.78;5235028;28;20021;-71
2023/08/27 02:58:53;;;;;;;2.90;1.67;;;;;;;16.29;100.00;100800.16;5234736;28;20087;-72
2023/08/27 03:01:25;;;;;;;4.80;2.30;;;;;;;16.32;100.00;100797.25;5233178;28;20029;-72
2023/08/27 03:03:56;;;;;;;3.33;2.00;;;;;;;16.38;100.00;100796.75;5234410;28;20049;-72
2023/08/27 03:06:27;;;;;;;3.07;1.87;;;;;;;16.28;100.00;100788.78;5231221;28;20060;-71
2023/08/27 03:08:59;;;;;;;4.53;2.00;;;;;;;16.41;100.00;100801.78;5224488;28;20097;-72
2023/08/27 03:11:30;;;;;;;4.23;2.13;;;;;;;16.39;100.00;100787.03;5217057;28;20037;-75
2023/08/27 03:14:01;;;;;;;3.80;2.43;;;;;;;16.48;100.00;100801.25;5234847;28;20056;-72
2023/08/27 03:16:33;;;;;;;5.30;2.30;;;;;;;16.41;100.00;100791.19;5233803;28;20025;-72
2023/08/27 03:19:04;;;;;;;3.50;2.20;;;;;;;16.40;100.00;100810.69;5216014;28;20115;-72
2023/08/27 03:21:35;;;;;;;4.13;2.10;;;;;;;16.46;100.00;100809.28;5234751;28;20021;-73
2023/08/27 03:24:07;;;;;;;3.10;2.40;;;;;;;16.39;100.00;100808.16;5233829;28;20021;-72
2023/08/27 03:26:38;;;;;;;4.23;2.60;;;;;;;16.41;100.00;100809.69;5223050;28;20026;-72
2023/08/27 03:29:09;;;;;;;3.67;2.23;;;;;;;16.39;100.00;100816.91;5232082;28;20048;-73
2023/08/27 03:31:41;;;;;;;5.23;3.10;;;;;;;16.42;100.00;100813.19;5233506;28;20032;-73
2023/08/27 03:34:12;;;;;;;4.93;2.80;;;;;;;16.29;100.00;100813.38;5230340;28;20584;-72
2023/08/27 03:36:44;;;;;;;6.97;3.03;;;;;;;16.37;100.00;100807.47;5217265;28;20025;-72
2023/08/27 03:39:15;;;;;;;7.53;3.30;;;;;;;16.19;100.00;100806.25;5233629;28;20136;-73
2023/08/27 03:41:46;;;;;;;4.37;2.83;;;;;;;16.07;100.00;100794.06;5234318;28;20025;-72
2023/08/27 03:44:18;;;;;;;5.57;2.80;;;;;;;16.32;100.00;100784.88;5215293;28;20025;-73
2023/08/27 03:46:49;;;;;;;4.80;2.70;;;;;;;16.25;100.00;100780.28;5234108;28;20136;-72
2023/08/27 03:49:20;;;;;;;9.13;2.70;;;;;;;16.28;100.00;100780.00;5233770;28;20018;-72
2023/08/27 03:51:52;;;;;;;3.70;2.47;;;;;;;16.13;100.00;100780.34;5233679;28;20075;-72
2023/08/27 03:54:23;;;;;;;3.10;2.33;;;;;;;15.98;100.00;100785.09;5233914;28;20022;-73
2023/08/27 03:56:55;;;;;;;7.30;3.27;;;;;;;16.26;100.00;100774.00;5233940;28;20033;-73
2023/08/27 03:59:26;;;;;;;4.33;2.63;;;;;;;15.96;100.00;100772.03;5231885;28;20026;-73
2023/08/27 04:01:57;;;;;;;5.80;2.37;;;;;;;16.09;100.00;100755.16;5215957;28;20116;-73
2023/08/27 04:04:29;;;;;;;6.47;2.47;;;;;;;16.27;100.00;100767.75;5229603;28;20105;-73
2023/08/27 04:07:00;;;;;;;4.27;2.63;;;;;;;16.32;100.00;100765.53;5232001;28;20257;-74
2023/08/27 04:09:33;;;;;;;5.13;2.30;;;;;;;16.34;100.00;100771.53;5233434;28;20033;-72
2023/08/27 04:12:05;;;;;;;4.43;2.47;;;;;;;16.11;100.00;100763.78;5233367;28;20097;-72
2023/08/27 04:14:36;;;;;;;3.13;2.43;;;;;;;16.00;100.00;100761.22;5218910;28;20030;-73
2023/08/27 04:17:08;;;;;;;6.70;3.13;;;;;;;15.92;100.00;100757.38;5232717;28;20061;-72
2023/08/27 04:19:39;;;;;;;3.10;2.07;;;;;;;16.19;100.00;100769.25;5232914;28;20022;-72
2023/08/27 04:22:10;;;;;;;2.73;2.23;;;;;;;16.27;100.00;100773.88;5231902;28;20021;-72
2023/08/27 04:24:42;;;;;;;4.07;2.20;;;;;;;16.09;100.00;100781.59;5223395;28;20026;-72
2023/08/27 04:27:13;;;;;;;6.27;2.27;;;;;;;16.12;100.00;100778.69;5214794;28;20022;-73
2023/08/27 04:29:44;;;;;;;3.27;2.17;;;;;;;16.26;100.00;100776.66;5205156;28;20475;-73
2023/08/27 04:32:16;;;;;;;4.43;2.20;;;;;;;16.25;100.00;100770.53;5227469;28;20048;-73
2023/08/27 04:34:47;;;;;;;4.87;2.43;;;;;;;15.99;100.00;100776.22;5211208;28;20022;-72
2023/08/27 04:37:18;;;;;;;4.13;2.00;;;;;;;16.15;100.00;100774.91;5227657;28;20036;-72
2023/08/27 04:39:49;;;;;;;4.27;2.10;;;;;;;16.14;100.00;100768.81;5232456;28;20104;-71
2023/08/27 04:42:21;;;;;;;4.10;2.20;;;;;;;16.11;100.00;100758.50;5232617;28;20018;-72
2023/08/27 04:44:52;;;;;;;4.80;2.17;;;;;;;16.26;100.00;100774.88;5231914;28;20080;-72
2023/08/27 04:47:23;;;;;;;3.33;2.20;;;;;;;16.13;100.00;100772.41;5232544;28;20056;-72
2023/08/27 04:49:55;;;;;;;4.97;2.10;;;;;;;16.18;100.00;100783.44;5232381;28;20108;-72
2023/08/27 04:52:26;;;;;;;2.23;1.87;;;;;;;16.11;100.00;100774.34;5231884;28;20017;-72
2023/08/27 04:54:57;;;;;;;4.13;1.80;;;;;;;15.95;100.00;100780.88;5233305;28;20029;-71
2023/08/27 04:57:30;;;;;;;5.50;2.40;;;;;;;16.14;100.00;100789.97;5232387;28;20488;-73
2023/08/27 05:00:16;;;;;;;5.63;2.17;;;;;;;16.11;100.00;100792.03;5230020;28;20029;-72
2023/08/27 05:02:49;;;;;;;5.07;1.70;;;;;;;15.99;100.00;100802.63;5231311;28;20070;-73
2023/08/27 05:05:20;;;;;;;4.80;1.90;;;;;;;16.02;100.00;100797.13;5232183;28;20037;-72
2023/08/27 05:07:51;;;;;;;3.40;1.80;;;;;;;15.99;100.00;100793.88;5232857;28;20087;-72
2023/08/27 05:10:23;;;;;;;5.03;2.17;;;;;;;15.81;100.00;100794.44;5231703;28;20388;-73
2023/08/27 05:12:54;;;;;;;4.13;1.83;;;;;;;16.03;100.00;100804.06;5232264;28;20033;-72
2023/08/27 05:15:25;;;;;;;2.30;1.80;;;;;;;15.80;100.00;100779.53;5213288;28;20020;-72
2023/08/27 05:17:58;;;;;;;5.87;1.90;;;;;;;16.15;100.00;100799.53;5231770;28;20033;-72
2023/08/27 05:20:29;;;;;;;5.20;2.03;;;;;;;16.18;100.00;100796.63;5218706;28;20384;-72
2023/08/27 05:23:00;;;;;;;3.17;2.60;;;;;;;15.96;100.00;100798.44;5231813;28;20021;-74
2023/08/27 05:25:32;;;;;;;3.73;2.07;;;;;;;16.10;100.00;100793.81;5231981;28;20148;-72
2023/08/27 05:28:04;;;;;;;4.63;2.90;;;;;;;16.08;100.00;100801.88;5232280;28;20478;-72
2023/08/27 05:30:35;;;;;;;3.80;2.33;;;;;;;16.09;100.00;100792.16;5233414;28;20029;-72
2023/08/27 05:33:07;;;;;;;5.23;2.80;;;;;;;16.17;100.00;100794.13;5243744;28;20025;-72
2023/08/27 05:35:38;;;;;;;4.77;2.57;;;;;;;16.15;100.00;100775.78;5232100;28;20033;-72
2023/08/27 05:38:09;;;;;;;4.57;2.13;;;;;;;16.16;100.00;100793.28;5205517;28;20603;-72
2023/08/27 05:40:41;;;;;;;6.43;2.40;;;;;;;16.10;100.00;100785.88;5226721;28;20026;-71
2023/08/27 05:43:12;;;;;;;4.63;2.57;;;;;;;16.27;100.00;100796.81;5232101;28;20484;-71
2023/08/27 05:45:43;;;;;;;4.47;3.10;;;;;;;16.26;100.00;100797.78;5231161;28;20105;-71
2023/08/27 05:48:15;;;;;;;6.83;3.03;;;;;;;16.25;100.00;100799.59;5231824;28;20036;-72
2023/08/27 05:50:46;;;;;;;4.27;2.47;;;;;;;16.25;100.00;100794.31;5231647;28;20041;-72
2023/08/27 05:53:17;;;;;;;4.63;2.40;;;;;;;16.11;100.00;100795.47;5245683;28;20037;-71
2023/08/27 05:55:49;;;;;;;4.60;2.47;;;;;;;16.23;100.00;100793.63;5214361;28;20091;-72
2023/08/27 05:58:20;;;;;;;4.60;2.47;;;;;;;16.00;100.00;100779.72;5230734;28;20029;-72
2023/08/27 06:00:53;;;;;;;4.37;2.40;;;;;;;16.13;100.00;100790.91;5213416;28;20035;-71
2023/08/27 06:03:25;;;;;;;4.40;2.80;;;;;;;15.95;100.00;100780.88;5234594;28;20028;-71
2023/08/27 06:05:56;;;;;;;4.10;2.37;;;;;;;16.26;100.00;100792.50;5235753;28;20021;-72
2023/08/27 06:08:27;;;;;;;3.53;2.40;;;;;;;16.21;100.00;100791.09;5235841;28;20429;-71
2023/08/27 06:10:59;;;;;;;6.97;2.57;;;;;;;16.25;100.00;100788.22;5235058;28;20044;-71
2023/08/27 06:13:31;;;;;;;4.90;2.60;;;;;;;16.20;100.00;100773.56;5229875;28;20480;-74
2023/08/27 06:16:03;;;;;;;5.20;2.60;;;;;;;16.18;100.00;100775.50;5234832;28;20040;-72
2023/08/27 06:18:34;;;;;;;4.00;2.60;;;;;;;16.17;100.00;100773.00;5235172;28;20026;-73
2023/08/27 06:21:06;;;;;;;4.33;2.30;;;;;;;16.32;100.00;100765.53;5235876;28;20376;-71
2023/08/27 06:23:37;;;;;;;4.57;2.83;;;;;;;16.26;100.00;100761.66;5235369;28;20127;-71
2023/08/27 06:26:09;;;;;;;4.67;2.70;;;;;;;16.29;100.00;100765.81;5235078;28;20117;-71
2023/08/27 06:28:40;;;;;;;7.77;3.00;;;;;;;16.33;100.00;100760.16;5235507;28;20638;-72
2023/08/27 06:31:11;;;;;;;4.03;2.30;;;;;;;16.32;100.00;100752.34;5234107;28;20041;-71
2023/08/27 06:33:43;;;;;;;8.13;2.67;;;;;;;16.33;100.00;100764.59;5235607;28;20030;-71
2023/08/27 06:36:14;;;;;;;3.97;2.50;;;;;;;16.29;100.00;100768.47;5234895;28;20100;-73
2023/08/27 06:38:46;;;;;;;4.97;2.40;;;;;;;16.32;100.00;100765.53;5235631;28;20026;-72
2023/08/27 06:41:17;;;;;;;4.80;2.77;;;;;;;16.29;100.00;100757.88;5234225;28;20119;-72
2023/08/27 06:43:48;;;;;;;7.90;3.27;;;;;;;16.33;100.00;100764.59;5234644;28;20195;-73
2023/08/27 06:46:20;;;;;;;7.13;3.23;;;;;;;16.29;100.00;100763.19;5234239;28;20041;-70
2023/08/27 06:48:51;;;;;;;5.13;2.33;;;;;;;16.36;100.00;100760.84;5235256;28;20180;-72
2023/08/27 06:51:22;;;;;;;7.83;2.87;;;;;;;16.45;100.00;100771.47;5229654;28;20033;-71
2023/08/27 06:53:53;;;;;;;5.87;3.20;;;;;;;16.44;100.00;100769.78;5225499;28;20472;-71
2023/08/27 06:56:26;;;;;;;4.47;2.40;;;;;;;16.49;100.00;100777.34;5234684;28;20029;-71
2023/08/27 06:58:57;;;;;;;5.47;3.10;;;;;;;16.50;100.00;100783.44;5233895;28;20034;-72
2023/08/27 07:01:28;;;;;;;15.73;3.50;;;;;;;16.55;100.00;100771.50;5233785;28;20041;-72
2023/08/27 07:04:00;;;;;;;5.40;2.80;;;;;;;16.65;100.00;100774.16;5234856;28;20084;-71
2023/08/27 07:06:31;;;;;;;4.47;2.47;;;;;;;16.65;100.00;100784.75;5233660;28;20040;-72
2023/08/27 07:09:04;;;;;;;5.63;3.17;;;;;;;16.68;100.00;100788.94;5234700;28;20033;-72
2023/08/27 07:11:35;;;;;;;7.40;3.20;;;;;;;16.68;100.00;100781.03;5234139;28;20629;-72
2023/08/27 07:14:07;;;;;;;5.57;2.90;;;;;;;16.73;100.00;100788.53;5233067;28;20036;-72
2023/08/27 07:16:38;;;;;;;6.43;3.33;;;;;;;16.79;100.00;100788.03;5234260;28;20061;-72
2023/08/27 07:19:09;;;;;;;4.03;2.70;;;;;;;16.89;100.00;100783.59;5233985;28;20029;-71
2023/08/27 07:21:41;;;;;;;4.97;2.90;;;;;;;16.98;100.00;100781.09;5234210;28;20113;-73
2023/08/27 07:24:13;;;;;;;5.43;2.77;;;;;;;17.09;100.00;100777.50;5234395;28;20346;-72
2023/08/27 07:26:45;;;;;;;4.67;2.90;;;;;;;17.17;100.00;100769.75;5234369;28;20028;-71
2023/08/27 07:29:16;;;;;;;8.47;3.50;;;;;;;17.28;100.00;100777.53;5231908;28;20391;-72
2023/08/27 07:31:47;;;;;;;7.30;3.13;;;;;;;17.33;100.00;100778.97;5234278;28;20029;-71
2023/08/27 07:34:18;;;;;;;7.23;3.07;;;;;;;17.51;100.00;100781.72;5224505;28;20030;-72
2023/08/27 07:36:50;;;;;;;8.13;3.17;;;;;;;17.65;100.00;100783.13;5233978;28;20044;-72
2023/08/27 07:39:22;;;;;;;7.40;3.30;;;;;;;17.90;100.00;100784.38;5233469;28;20029;-73
2023/08/27 07:41:54;;;;;;;7.17;3.57;;;;;;;18.30;100.00;100775.50;5233868;28;20028;-72
2023/08/27 07:44:25;;;;;;;5.60;3.03;;;;;;;18.61;100.00;100778.72;5232767;28;20013;-72
2023/08/27 07:46:57;;;;;;;4.20;3.13;;;;;;;19.13;100.00;100781.00;5223652;28;20030;-72
2023/08/27 07:49:28;;;;;;;6.23;3.03;;;;;;;19.38;100.00;100783.88;5230298;28;20480;-72
2023/08/27 07:52:00;;;;;;;7.00;3.33;;;;;;;19.44;100.00;100783.28;5230878;28;20041;-72
2023/08/27 07:54:32;;;;;;;4.77;2.57;;;;;;;19.81;100.00;100774.25;5229186;28;20498;-72
2023/08/27 07:57:04;;;;;;;7.13;3.13;;;;;;;20.87;100.00;100788.47;5234111;28;20029;-72
2023/08/27 07:59:36;;;;;;;6.68;2.80;;;;;;;21.24;100.00;100784.56;5220511;28;20120;-74
2023/08/27 08:02:07;;;;;;;6.28;2.17;;;;;;;21.68;100.00;100779.94;5223007;28;20026;-73
2023/08/27 08:04:38;;;;;;;5.00;2.45;;;;;;;21.44;100.00;100776.28;5228513;28;20038;-73
2023/08/27 08:07:09;;;;;;;6.80;3.08;;;;;;;21.31;100.00;100770.63;5219958;28;20473;-73
2023/08/27 08:09:41;;;;;;;5.65;2.35;;;;;;;20.95;100.00;100775.22;5217538;28;20030;-72
2023/08/27 08:12:12;;;;;;;5.20;2.83;;;;;;;20.88;100.00;100772.34;5217882;28;20072;-73
2023/08/27 08:14:44;;;;;;;4.85;2.95;;;;;;;20.80;100.00;100778.44;5198387;28;20608;-73
2023/08/27 08:17:15;;;;;;;8.73;3.28;;;;;;;20.65;100.00;100782.72;5213354;28;20063;-72
2023/08/27 08:19:46;;;;;;;6.50;2.47;;;;;;;20.48;100.00;100785.31;5230066;28;20029;-72
2023/08/27 08:22:18;;;;;;;6.68;2.38;;;;;;;20.52;100.00;100785.84;5218178;28;20044;-72
2023/08/27 08:24:49;;;;;;;7.30;2.90;;;;;;;20.18;100.00;100780.34;5232176;28;20041;-73
2023/08/27 08:27:21;;;;;;;4.97;3.08;;;;;;;20.75;100.00;100779.94;5233046;28;20076;-73
2023/08/27 08:29:53;;;;;;;5.80;2.80;;;;;;;20.69;100.00;100781.41;5214463;28;20032;-72
2023/08/27 08:32:24;;;;;;;6.43;2.45;;;;;;;21.43;100.00;100787.94;5220760;28;20412;-72
2023/08/27 08:34:56;;;;;;;6.53;2.85;;;;;;;22.18;100.00;100790.56;5215061;28;20071;-73
2023/08/27 08:37:27;;;;;;;7.55;3.00;;;;;;;23.05;100.00;100781.88;5231921;28;20563;-73
2023/08/27 08:39:58;;;;;;;3.67;2.10;;;;;;;23.39;100.00;100780.63;5214049;28;20376;-73
2023/08/27 08:42:34;;;;;;;5.43;2.55;;;;;;;24.08;100.00;100788.75;5231848;28;20029;-72
2023/08/27 08:45:34;;;;;;;4.78;2.60;;;;;;;25.16;100.00;100788.44;5230755;28;20025;-72
2023/08/27 08:48:06;;;;;;;5.50;2.00;;;;;;;24.78;100.00;100782.25;5231909;28;20124;-73
2023/08/27 08:50:40;;;;;;;6.57;2.30;;;;;;;24.89;100.00;100781.75;5227521;28;20058;-72
2023/08/27 08:53:16;;;;;;;8.45;2.58;;;;;;;26.05;100.00;100780.94;5214547;28;20422;-73
2023/08/27 08:55:52;;;;;;;4.88;1.52;;;;;;;26.34;100.00;100786.25;5228914;28;20080;-74
2023/08/27 08:58:27;;;;;;;7.25;1.55;;;;;;;26.96;100.00;100780.09;5231532;28;20025;-74
2023/08/27 09:00:58;;;;;;;8.55;3.05;;;;;;;26.78;100.00;100786.84;5214258;28;20029;-74
2023/08/27 09:03:31;;;;;;;6.72;1.98;;;;;;;26.50;100.00;100782.41;5227430;28;20084;-72
2023/08/27 09:06:03;;;;;;;5.83;1.63;;;;;;;26.94;100.00;100776.75;5223005;28;20033;-73
2023/08/27 09:08:36;;;;;;;3.58;1.95;;;;;;;26.93;100.00;100773.25;5227275;28;20694;-72
2023/08/27 09:11:08;;;;;;;2.10;1.30;;;;;;;26.57;100.00;100767.16;5220632;28;20049;-74
2023/08/27 09:13:39;;;;;;;4.38;1.77;;;;;;;25.79;100.00;100769.00;5223068;28;20542;-72
2023/08/27 09:16:11;;;;;;;5.15;1.73;;;;;;;25.76;92.90;100772.06;5208891;28;20078;-72
2023/08/27 09:18:43;;;;;;;2.63;1.20;;;;;;;25.70;88.90;100762.13;5225154;28;20037;-74
2023/08/27 09:21:14;;;;;;;5.13;1.98;;;;;;;25.92;88.89;100762.06;5210964;28;20170;-73
2023/08/27 09:23:45;;;;;;;5.28;1.67;;;;;;;26.41;83.58;100754.09;5227898;28;20071;-72
2023/08/27 09:26:20;;;;;;;3.83;1.50;;;;;;;25.78;92.68;100756.59;5208686;28;20589;-74
2023/08/27 09:28:52;;;;;;;6.68;1.60;;;;;;;25.71;85.59;100753.06;5215027;28;20033;-72
2023/08/27 09:31:39;;;;;;;6.28;1.80;;;;;;;26.31;89.08;100751.72;5208730;28;20401;-70
2023/08/27 09:34:13;;;;;;;7.63;1.55;;;;;;;25.57;83.44;100747.53;5227820;28;20083;-69
2023/08/27 09:36:44;;;;;;;6.53;2.35;;;;;;;25.00;84.73;100747.47;5213580;28;20025;-71
2023/08/27 09:39:16;;;;;;;5.63;1.52;;;;;;;24.70;86.19;100740.34;5230908;28;20032;-71
2023/08/27 09:41:47;;;;;;;5.40;1.85;;;;;;;24.14;86.01;100744.38;5214229;28;20048;-69
2023/08/27 09:44:24;;;;;;;5.28;1.48;;;;;;;23.87;90.27;100734.13;5211074;28;20121;-70
2023/08/27 09:47:04;;;;;;;6.65;1.60;;;;;;;24.97;92.66;100737.16;5202126;28;20048;-72
2023/08/27 09:49:40;;;;;;;4.78;1.60;;;;;;;25.91;84.92;100725.53;5230370;28;20048;-71
2023/08/27 09:52:11;;;;;;;3.65;1.50;;;;;;;25.46;83.31;100732.84;5230268;28;20036;-72
2023/08/27 09:54:43;;;;;;;5.22;1.90;;;;;;;26.11;76.75;100731.00;5230430;28;20042;-73
2023/08/27 09:57:19;;;;;;;8.10;2.05;;;;;;;26.13;76.47;100734.31;5212870;28;20488;-72
2023/08/27 09:59:52;;;;;;;6.65;2.05;;;;;;;25.47;76.07;100736.34;5228777;28;20512;-72
2023/08/27 10:02:24;;;;;;;7.13;1.70;;;;;;;25.33;77.79;100733.56;5225560;28;20029;-72
2023/08/27 10:04:56;;;;;;;3.60;1.40;;;;;;;26.39;72.63;100735.47;5228026;28;20040;-72
2023/08/27 10:07:27;;;;;;;4.32;1.73;;;;;;;26.90;71.00;100736.03;5229154;28;20026;-71
2023/08/27 10:09:59;;;;;;;6.22;1.60;;;;;;;27.43;61.61;100736.31;5229770;28;20046;-70
2023/08/27 10:12:31;;;;;;;5.70;1.60;;;;;;;28.00;58.31;100735.81;5229958;28;20575;-71
2023/08/27 10:15:05;;;;;;;6.25;1.42;;;;;;;27.70;50.19;100730.91;5229686;28;20020;-71
2023/08/27 10:17:37;;;;;;;3.53;1.40;;;;;;;27.34;47.88;100732.16;5209215;28;20025;-73
2023/08/27 10:20:10;;;;;;;5.80;1.80;;;;;;;26.80;53.05;100725.69;5220292;28;20113;-71
2023/08/27 10:22:42;;;;;;;4.05;1.38;;;;;;;26.44;50.46;100735.69;5225347;28;20060;-71
2023/08/27 10:25:17;;;;;;;4.95;1.60;;;;;;;26.32;51.15;100735.41;5230428;28;20060;-72
2023/08/27 10:27:50;;;;;;;3.08;1.13;;;;;;;26.07;52.22;100732.44;5212878;28;20057;-69
2023/08/27 10:30:22;;;;;;;7.60;2.25;;;;;;;26.26;53.32;100730.03;5217591;28;20029;-70
2023/08/27 10:32:54;;;;;;;3.90;1.48;;;;;;;27.71;50.50;100732.59;5211840;28;20040;-72
2023/08/27 10:35:26;;;;;;;6.03;1.48;;;;;;;27.24;49.69;100727.22;5220151;28;20668;-73
2023/08/27 10:37:58;;;;;;;5.57;1.50;;;;;;;27.93;46.98;100732.31;5220514;28;20116;-70
2023/08/27 10:40:31;;;;;;;4.50;1.33;;;;;;;27.58;45.94;100730.69;5227701;28;20120;-71
2023/08/27 10:43:07;;;;;;;4.07;1.55;;;;;;;26.90;50.32;100737.88;5209470;28;20029;-71
2023/08/27 10:45:39;;;;;;;5.07;1.48;;;;;;;26.13;50.97;100744.22;5205212;28;20598;-73
2023/08/27 10:48:26;;;;;;;4.15;1.15;;;;;;;26.92;50.08;100741.22;5221993;28;20055;-69
2023/08/27 10:51:18;;;;;;;4.63;1.27;;;;;;;27.23;50.68;100737.13;5226169;28;20033;-70
2023/08/27 10:53:49;;;;;;;2.92;1.10;;;;;;;26.60;47.15;100746.31;5230214;28;20451;-70
2023/08/27 10:56:41;;;;;;;3.15;1.10;;;;;;;26.80;49.86;100744.50;5212372;28;20056;-71
2023/08/27 10:59:26;;;;;;;5.13;1.45;;;;;;;26.31;51.25;100731.09;5226263;28;20045;-72
2023/08/27 11:02:10;;;;;;;5.35;1.48;;;;;;;25.96;50.07;100728.44;5203412;28;20030;-74
2023/08/27 11:04:43;;;;;;;4.10;1.15;;;;;;;26.12;51.70;100745.25;5226905;28;20179;-72
2023/08/27 11:07:17;;;;;;;4.00;1.20;;;;;;;25.73;49.43;100734.91;5231962;28;20132;-73
2023/08/27 11:09:56;;;;;;;5.05;1.15;;;;;;;26.09;50.60;100733.88;5234098;28;20053;-73
2023/08/27 11:12:36;;;;;;;5.05;1.70;;;;;;;25.73;50.42;100745.63;5232054;28;20030;-73
2023/08/27 11:15:15;;;;;;;4.97;1.10;;;;;;;25.77;48.77;100738.84;5214976;28;20131;-72
2023/08/27 11:17:47;;;;;;;2.90;0.95;;;;;;;25.60;48.22;100732.94;5233340;28;20026;-73
2023/08/27 11:20:24;;;;;;;5.65;1.20;;;;;;;25.62;48.99;100750.47;5215793;28;20032;-73
2023/08/27 11:23:00;;;;;;;2.35;0.70;;;;;;;25.53;48.68;100759.69;5232242;28;20057;-73
2023/08/27 11:25:33;;;;;;;4.40;1.45;;;;;;;24.69;63.30;100800.28;5214914;28;20017;-73
2023/08/27 11:28:06;;;;;;;7.00;1.75;;;;;;;24.03;94.45;100807.19;5214010;28;20047;-74
2023/08/27 11:30:38;;;;;;;6.40;1.73;;;;;;;22.95;85.32;100796.28;5214314;28;20172;-73
2023/08/27 11:33:15;;;;;;;3.95;1.23;;;;;;;23.23;94.12;100797.63;5210640;28;20619;-73
2023/08/27 11:35:46;;;;;;;2.97;0.90;;;;;;;23.19;82.43;100782.97;5213364;28;20128;-73
2023/08/27 11:38:23;;;;;;;3.97;0.95;;;;;;;23.61;87.28;100798.69;5215214;28;20104;-72
2023/08/27 11:40:57;;;;;;;3.55;0.60;;;;;;;23.66;85.96;100796.31;5215598;28;20025;-74
2023/08/27 11:43:29;;;;;;;1.95;0.57;;;;;;;23.29;89.37;100794.25;5232936;28;20029;-73